WZZ3203 EDNY-LYBE
Flight info
| Callsign | WZZ3203 |
|---|---|
| Flight time | 1h 16m |
| Altitude | 35000 |
| Route | BEMKI1W BEMKI L607 XEBIX Z2 TUNUM Z204 GEDSO DCT PODET DCT LAKIK DCT RIGMU |
| Aircraft | A321/M-SDE3FGHIRWY/LB1 |
Departure
| Time | 2026-04-20 15:46 |
|---|---|
| Airport | Bodensee Airport Friedrichshafen (EDNY) |
Arrival
| Time | 2026-04-20 17:02 |
|---|---|
| Airport | Belgrade Nikola Tesla Airport (LYBE) |
| Time | Latitude | Longitude | Altitude | Speed | Heading |
|---|---|---|---|---|---|
| 2026-04-20 15:28 | 47.67374 | 9.52393 | 1372 ft | 0 kts | 175° |
| 2026-04-20 15:42 | 47.67373 | 9.52393 | 1376 ft | 0 kts | 181° |
| 2026-04-20 15:42 | 47.67371 | 9.52389 | 1373 ft | 1 kts | 215° |
| 2026-04-20 15:43 | 47.67373 | 9.52379 | 1372 ft | 1 kts | 285° |
| 2026-04-20 15:43 | 47.67391 | 9.52372 | 1373 ft | 5 kts | 355° |
| 2026-04-20 15:43 | 47.67436 | 9.52406 | 1373 ft | 10 kts | 55° |
| 2026-04-20 15:43 | 47.67474 | 9.52502 | 1374 ft | 11 kts | 60° |
| 2026-04-20 15:44 | 47.67527 | 9.52584 | 1374 ft | 12 kts | 13° |
| 2026-04-20 15:44 | 47.67603 | 9.52539 | 1376 ft | 13 kts | 328° |
| 2026-04-20 15:44 | 47.67644 | 9.52474 | 1374 ft | 7 kts | 262° |
| 2026-04-20 15:44 | 47.67634 | 9.52445 | 1377 ft | 0 kts | 242° |
| 2026-04-20 15:45 | 47.67631 | 9.52438 | 1373 ft | 2 kts | 242° |
| 2026-04-20 15:45 | 47.67551 | 9.52229 | 1374 ft | 59 kts | 240° |
| 2026-04-20 15:45 | 47.67232 | 9.51409 | 1375 ft | 124 kts | 240° |
| 2026-04-20 15:45 | 47.66716 | 9.50087 | 1559 ft | 158 kts | 239° |
| 2026-04-20 15:46 | 47.66180 | 9.48706 | 2332 ft | 155 kts | 241° |
| 2026-04-20 15:46 | 47.65639 | 9.47314 | 3037 ft | 156 kts | 242° |
| 2026-04-20 15:46 | 47.65080 | 9.45874 | 3464 ft | 169 kts | 242° |
| 2026-04-20 15:46 | 47.64454 | 9.44258 | 3684 ft | 192 kts | 242° |
| 2026-04-20 15:47 | 47.63544 | 9.42719 | 3888 ft | 216 kts | 210° |
| 2026-04-20 15:47 | 47.62032 | 9.42394 | 4229 ft | 228 kts | 165° |
| 2026-04-20 15:47 | 47.60736 | 9.43684 | 4828 ft | 229 kts | 123° |
| 2026-04-20 15:47 | 47.60271 | 9.45898 | 5457 ft | 228 kts | 90° |
| 2026-04-20 15:48 | 47.60349 | 9.48263 | 6172 ft | 229 kts | 82° |
| 2026-04-20 15:48 | 47.60544 | 9.50625 | 6830 ft | 233 kts | 81° |
| 2026-04-20 15:48 | 47.60722 | 9.52997 | 7441 ft | 237 kts | 83° |
| 2026-04-20 15:48 | 47.60858 | 9.55492 | 8071 ft | 242 kts | 85° |
| 2026-04-20 15:49 | 47.61077 | 9.57958 | 8614 ft | 250 kts | 73° |
| 2026-04-20 15:49 | 47.61549 | 9.60568 | 8850 ft | 273 kts | 74° |
| 2026-04-20 15:49 | 47.62023 | 9.63407 | 9222 ft | 290 kts | 75° |
| 2026-04-20 15:49 | 47.62488 | 9.66355 | 9860 ft | 296 kts | 76° |
| 2026-04-20 15:50 | 47.62949 | 9.69371 | 10316 ft | 310 kts | 76° |
| 2026-04-20 15:50 | 47.63437 | 9.72605 | 10477 ft | 332 kts | 76° |
| 2026-04-20 15:50 | 47.63949 | 9.76021 | 10648 ft | 353 kts | 76° |
| 2026-04-20 15:50 | 47.64485 | 9.79611 | 11122 ft | 361 kts | 76° |
| 2026-04-20 15:51 | 47.65030 | 9.83295 | 11725 ft | 366 kts | 76° |
| 2026-04-20 15:51 | 47.65579 | 9.87013 | 12307 ft | 372 kts | 76° |
| 2026-04-20 15:51 | 47.66101 | 9.90806 | 12886 ft | 378 kts | 81° |
| 2026-04-20 15:51 | 47.66165 | 9.94736 | 13446 ft | 386 kts | 95° |
| 2026-04-20 15:52 | 47.65608 | 9.98646 | 13982 ft | 392 kts | 109° |
| 2026-04-20 15:52 | 47.64531 | 10.02386 | 14502 ft | 396 kts | 115° |
| 2026-04-20 15:52 | 47.63384 | 10.06123 | 15050 ft | 401 kts | 115° |
| 2026-04-20 15:53 | 47.61058 | 10.13747 | 16101 ft | 411 kts | 115° |
| 2026-04-20 15:53 | 47.59874 | 10.17635 | 16616 ft | 416 kts | 115° |
| 2026-04-20 15:53 | 47.58676 | 10.21568 | 17149 ft | 421 kts | 115° |
| 2026-04-20 15:53 | 47.57445 | 10.25527 | 17663 ft | 426 kts | 118° |
| 2026-04-20 15:54 | 47.55870 | 10.29266 | 18177 ft | 429 kts | 129° |
| 2026-04-20 15:54 | 47.53929 | 10.32615 | 18615 ft | 432 kts | 134° |
| 2026-04-20 15:54 | 47.52282 | 10.36359 | 19042 ft | 440 kts | 114° |
| 2026-04-20 15:54 | 47.51100 | 10.40580 | 19481 ft | 445 kts | 112° |
| 2026-04-20 15:55 | 47.49969 | 10.44805 | 19982 ft | 449 kts | 111° |
| 2026-04-20 15:55 | 47.48814 | 10.49107 | 20438 ft | 453 kts | 112° |
| 2026-04-20 15:55 | 47.47618 | 10.53451 | 20890 ft | 457 kts | 113° |
| 2026-04-20 15:55 | 47.46383 | 10.57806 | 21338 ft | 461 kts | 114° |
| 2026-04-20 15:56 | 47.45116 | 10.62185 | 21745 ft | 465 kts | 113° |
| 2026-04-20 15:56 | 47.43826 | 10.66595 | 22162 ft | 470 kts | 114° |
| 2026-04-20 15:56 | 47.42522 | 10.71042 | 22610 ft | 474 kts | 114° |
| 2026-04-20 15:56 | 47.41206 | 10.75533 | 22973 ft | 477 kts | 114° |
| 2026-04-20 15:57 | 47.39889 | 10.80043 | 23356 ft | 481 kts | 114° |
| 2026-04-20 15:57 | 47.38558 | 10.84605 | 23737 ft | 485 kts | 114° |
| 2026-04-20 15:57 | 47.37221 | 10.89193 | 23995 ft | 489 kts | 114° |
| 2026-04-20 15:57 | 47.35873 | 10.93812 | 24414 ft | 491 kts | 114° |
| 2026-04-20 15:58 | 47.34518 | 10.98437 | 24800 ft | 491 kts | 114° |
| 2026-04-20 15:58 | 47.33157 | 11.03077 | 25094 ft | 495 kts | 114° |
| 2026-04-20 15:58 | 47.31789 | 11.07742 | 25414 ft | 497 kts | 114° |
| 2026-04-20 15:58 | 47.30410 | 11.12428 | 25784 ft | 499 kts | 114° |
| 2026-04-20 15:59 | 47.29024 | 11.17124 | 26163 ft | 500 kts | 114° |
| 2026-04-20 15:59 | 47.27628 | 11.21831 | 26523 ft | 502 kts | 114° |
| 2026-04-20 15:59 | 47.26224 | 11.26555 | 26898 ft | 504 kts | 114° |
| 2026-04-20 15:59 | 47.24832 | 11.31235 | 27234 ft | 506 kts | 114° |
| 2026-04-20 16:00 | 47.23415 | 11.35989 | 27531 ft | 508 kts | 114° |
| 2026-04-20 16:00 | 47.21989 | 11.40770 | 27837 ft | 511 kts | 114° |
| 2026-04-20 16:00 | 47.20553 | 11.45577 | 28192 ft | 514 kts | 114° |
| 2026-04-20 16:00 | 47.19113 | 11.50392 | 28540 ft | 516 kts | 115° |
| 2026-04-20 16:01 | 47.17661 | 11.55229 | 28844 ft | 518 kts | 115° |
| 2026-04-20 16:01 | 47.16198 | 11.60093 | 29123 ft | 520 kts | 115° |
| 2026-04-20 16:01 | 47.14733 | 11.64959 | 29456 ft | 522 kts | 115° |
| 2026-04-20 16:01 | 47.13253 | 11.69859 | 29707 ft | 525 kts | 115° |
| 2026-04-20 16:02 | 47.11765 | 11.74774 | 30024 ft | 527 kts | 115° |
| 2026-04-20 16:02 | 47.10272 | 11.79697 | 30226 ft | 528 kts | 114° |
| 2026-04-20 16:02 | 47.08775 | 11.84625 | 30490 ft | 528 kts | 115° |
| 2026-04-20 16:02 | 47.07476 | 11.89577 | 30917 ft | 525 kts | 108° |
| 2026-04-20 16:03 | 47.06356 | 11.94676 | 31295 ft | 523 kts | 108° |
| 2026-04-20 16:03 | 47.05237 | 11.99744 | 31713 ft | 521 kts | 108° |
| 2026-04-20 16:03 | 47.04116 | 12.04779 | 32106 ft | 518 kts | 108° |
| 2026-04-20 16:03 | 47.02991 | 12.09793 | 32478 ft | 516 kts | 108° |
| 2026-04-20 16:04 | 47.01866 | 12.14783 | 32894 ft | 514 kts | 109° |
| 2026-04-20 16:04 | 47.00746 | 12.19738 | 33315 ft | 512 kts | 108° |
| 2026-04-20 16:04 | 46.99624 | 12.24686 | 33730 ft | 509 kts | 108° |
| 2026-04-20 16:04 | 46.98512 | 12.29607 | 34091 ft | 508 kts | 108° |
| 2026-04-20 16:05 | 46.97406 | 12.34505 | 34396 ft | 506 kts | 108° |
| 2026-04-20 16:05 | 46.96297 | 12.39391 | 34632 ft | 505 kts | 109° |
| 2026-04-20 16:05 | 46.95185 | 12.44274 | 34842 ft | 506 kts | 108° |
| 2026-04-20 16:05 | 46.94069 | 12.49165 | 34943 ft | 506 kts | 108° |
| 2026-04-20 16:06 | 46.91857 | 12.58832 | 34959 ft | 503 kts | 108° |
| 2026-04-20 16:06 | 46.89619 | 12.68536 | 34961 ft | 503 kts | 108° |
| 2026-04-20 16:07 | 46.87380 | 12.78225 | 34940 ft | 502 kts | 109° |
| 2026-04-20 16:07 | 46.85138 | 12.87871 | 34967 ft | 501 kts | 109° |
| 2026-04-20 16:08 | 46.82897 | 12.97510 | 34972 ft | 501 kts | 109° |
| 2026-04-20 16:08 | 46.80650 | 13.07137 | 34982 ft | 501 kts | 109° |
| 2026-04-20 16:09 | 46.78384 | 13.16755 | 34973 ft | 500 kts | 109° |
| 2026-04-20 16:09 | 46.76116 | 13.26356 | 34981 ft | 500 kts | 109° |
| 2026-04-20 16:10 | 46.73849 | 13.35954 | 34988 ft | 501 kts | 109° |
| 2026-04-20 16:10 | 46.71572 | 13.45538 | 34986 ft | 500 kts | 109° |
| 2026-04-20 16:11 | 46.69286 | 13.55061 | 34992 ft | 502 kts | 109° |
| 2026-04-20 16:11 | 46.66977 | 13.64685 | 34981 ft | 504 kts | 109° |
| 2026-04-20 16:12 | 46.64650 | 13.74315 | 34979 ft | 504 kts | 109° |
| 2026-04-20 16:12 | 46.62321 | 13.83939 | 34979 ft | 505 kts | 109° |
| 2026-04-20 16:13 | 46.59977 | 13.93582 | 34994 ft | 506 kts | 109° |
| 2026-04-20 16:13 | 46.57614 | 14.03240 | 34993 ft | 507 kts | 109° |
| 2026-04-20 16:14 | 46.55239 | 14.12902 | 34990 ft | 508 kts | 110° |
| 2026-04-20 16:14 | 46.52858 | 14.22564 | 34990 ft | 508 kts | 110° |
| 2026-04-20 16:15 | 46.50483 | 14.32157 | 34990 ft | 509 kts | 109° |
| 2026-04-20 16:15 | 46.48079 | 14.41815 | 34983 ft | 509 kts | 110° |
| 2026-04-20 16:16 | 46.45655 | 14.51490 | 34964 ft | 510 kts | 110° |
| 2026-04-20 16:16 | 46.43239 | 14.61138 | 35002 ft | 509 kts | 110° |
| 2026-04-20 16:17 | 46.40815 | 14.70787 | 35018 ft | 509 kts | 110° |
| 2026-04-20 16:17 | 46.38378 | 14.80417 | 35028 ft | 509 kts | 110° |
| 2026-04-20 16:18 | 46.35925 | 14.90047 | 35017 ft | 509 kts | 110° |
| 2026-04-20 16:18 | 46.33469 | 14.99666 | 35031 ft | 510 kts | 110° |
| 2026-04-20 16:19 | 46.31021 | 15.09224 | 35032 ft | 510 kts | 110° |
| 2026-04-20 16:19 | 46.28545 | 15.18863 | 35031 ft | 511 kts | 110° |
| 2026-04-20 16:20 | 46.26062 | 15.28510 | 35038 ft | 512 kts | 110° |
| 2026-04-20 16:20 | 46.23562 | 15.38140 | 35050 ft | 512 kts | 110° |
| 2026-04-20 16:21 | 46.21053 | 15.47768 | 35048 ft | 512 kts | 110° |
| 2026-04-20 16:21 | 46.18552 | 15.57330 | 35049 ft | 513 kts | 110° |
| 2026-04-20 16:22 | 46.16065 | 15.66979 | 35049 ft | 513 kts | 108° |
| 2026-04-20 16:22 | 46.13909 | 15.76792 | 35052 ft | 513 kts | 105° |
| 2026-04-20 16:23 | 46.11889 | 15.86665 | 35053 ft | 513 kts | 105° |
| 2026-04-20 16:23 | 46.09780 | 15.96514 | 35049 ft | 513 kts | 107° |
| 2026-04-20 16:24 | 46.07592 | 16.06300 | 35056 ft | 513 kts | 107° |
| 2026-04-20 16:24 | 46.05760 | 16.14426 | 35047 ft | 513 kts | 107° |
| 2026-04-20 16:25 | 46.03208 | 16.25813 | 35055 ft | 514 kts | 107° |
| 2026-04-20 16:25 | 46.01021 | 16.35605 | 35056 ft | 514 kts | 107° |
| 2026-04-20 16:26 | 45.99191 | 16.43743 | 35053 ft | 514 kts | 107° |
| 2026-04-20 16:26 | 45.96974 | 16.53522 | 35033 ft | 514 kts | 107° |
| 2026-04-20 16:27 | 45.94749 | 16.63288 | 35057 ft | 513 kts | 107° |
| 2026-04-20 16:27 | 45.92529 | 16.73029 | 35064 ft | 513 kts | 108° |
| 2026-04-20 16:28 | 45.90294 | 16.82748 | 35063 ft | 512 kts | 108° |
| 2026-04-20 16:28 | 45.88054 | 16.92455 | 35061 ft | 512 kts | 108° |
| 2026-04-20 16:29 | 45.85818 | 17.02152 | 35058 ft | 512 kts | 108° |
| 2026-04-20 16:29 | 45.83567 | 17.11832 | 35054 ft | 512 kts | 108° |
| 2026-04-20 16:30 | 45.81319 | 17.21449 | 35057 ft | 512 kts | 108° |
| 2026-04-20 16:30 | 45.79049 | 17.31119 | 35051 ft | 512 kts | 108° |
| 2026-04-20 16:31 | 45.76770 | 17.40792 | 35054 ft | 512 kts | 108° |
| 2026-04-20 16:31 | 45.74479 | 17.50450 | 35053 ft | 512 kts | 108° |
| 2026-04-20 16:32 | 45.72190 | 17.60100 | 35053 ft | 513 kts | 108° |
| 2026-04-20 16:32 | 45.69889 | 17.69759 | 35055 ft | 513 kts | 108° |
| 2026-04-20 16:33 | 45.67581 | 17.79407 | 35055 ft | 513 kts | 108° |
| 2026-04-20 16:33 | 45.65255 | 17.89045 | 35059 ft | 513 kts | 108° |
| 2026-04-20 16:34 | 45.62936 | 17.98616 | 35053 ft | 513 kts | 108° |
| 2026-04-20 16:34 | 45.60601 | 18.08240 | 34822 ft | 512 kts | 107° |
| 2026-04-20 16:35 | 45.59736 | 18.13156 | 34224 ft | 511 kts | 99° |
| 2026-04-20 16:35 | 45.59032 | 18.18118 | 33684 ft | 509 kts | 99° |
| 2026-04-20 16:35 | 45.58333 | 18.23063 | 33150 ft | 506 kts | 99° |
| 2026-04-20 16:35 | 45.57635 | 18.27977 | 32624 ft | 504 kts | 99° |
| 2026-04-20 16:36 | 45.56937 | 18.32864 | 32118 ft | 501 kts | 99° |
| 2026-04-20 16:36 | 45.56239 | 18.37724 | 31632 ft | 498 kts | 99° |
| 2026-04-20 16:36 | 45.55541 | 18.42546 | 31148 ft | 495 kts | 99° |
| 2026-04-20 16:36 | 45.54844 | 18.47345 | 30673 ft | 492 kts | 99° |
| 2026-04-20 16:37 | 45.54149 | 18.52124 | 30206 ft | 489 kts | 99° |
| 2026-04-20 16:37 | 45.53499 | 18.56594 | 29716 ft | 487 kts | 99° |
| 2026-04-20 16:37 | 45.52813 | 18.61306 | 29237 ft | 483 kts | 99° |
| 2026-04-20 16:37 | 45.52131 | 18.65971 | 28733 ft | 479 kts | 99° |
| 2026-04-20 16:38 | 45.51451 | 18.70603 | 28266 ft | 475 kts | 99° |
| 2026-04-20 16:38 | 45.50775 | 18.75193 | 27831 ft | 471 kts | 100° |
| 2026-04-20 16:38 | 45.50103 | 18.79739 | 27397 ft | 467 kts | 100° |
| 2026-04-20 16:38 | 45.49435 | 18.84250 | 26978 ft | 463 kts | 101° |
| 2026-04-20 16:39 | 45.48769 | 18.88716 | 26572 ft | 459 kts | 101° |
| 2026-04-20 16:39 | 45.48106 | 18.93146 | 26183 ft | 455 kts | 101° |
| 2026-04-20 16:39 | 45.47449 | 18.97540 | 25805 ft | 452 kts | 101° |
| 2026-04-20 16:39 | 45.46796 | 19.01898 | 25433 ft | 448 kts | 101° |
| 2026-04-20 16:40 | 45.46146 | 19.06227 | 25068 ft | 445 kts | 101° |
| 2026-04-20 16:40 | 45.45500 | 19.10513 | 24704 ft | 441 kts | 102° |
| 2026-04-20 16:40 | 45.44862 | 19.14724 | 24342 ft | 438 kts | 102° |
| 2026-04-20 16:40 | 45.44214 | 19.19000 | 23976 ft | 434 kts | 102° |
| 2026-04-20 16:41 | 45.43577 | 19.23179 | 23613 ft | 431 kts | 102° |
| 2026-04-20 16:41 | 45.42953 | 19.27280 | 23195 ft | 427 kts | 102° |
| 2026-04-20 16:41 | 45.42328 | 19.31391 | 22767 ft | 423 kts | 103° |
| 2026-04-20 16:41 | 45.41706 | 19.35467 | 22347 ft | 419 kts | 103° |
| 2026-04-20 16:42 | 45.40926 | 19.39454 | 21916 ft | 414 kts | 112° |
| 2026-04-20 16:42 | 45.39749 | 19.43157 | 21505 ft | 408 kts | 122° |
| 2026-04-20 16:42 | 45.38324 | 19.46624 | 21074 ft | 404 kts | 123° |
| 2026-04-20 16:42 | 45.36907 | 19.50060 | 20654 ft | 400 kts | 123° |
| 2026-04-20 16:43 | 45.35508 | 19.53465 | 20260 ft | 397 kts | 123° |
| 2026-04-20 16:43 | 45.34126 | 19.56836 | 19848 ft | 393 kts | 122° |
| 2026-04-20 16:43 | 45.32755 | 19.60181 | 19448 ft | 390 kts | 122° |
| 2026-04-20 16:43 | 45.31389 | 19.63504 | 19056 ft | 386 kts | 122° |
| 2026-04-20 16:44 | 45.30055 | 19.66745 | 18666 ft | 383 kts | 122° |
| 2026-04-20 16:44 | 45.28714 | 19.69993 | 18331 ft | 379 kts | 122° |
| 2026-04-20 16:44 | 45.27381 | 19.73206 | 17913 ft | 376 kts | 122° |
| 2026-04-20 16:44 | 45.26057 | 19.76399 | 17454 ft | 374 kts | 122° |
| 2026-04-20 16:45 | 45.24743 | 19.79576 | 16997 ft | 372 kts | 122° |
| 2026-04-20 16:45 | 45.23441 | 19.82727 | 16539 ft | 369 kts | 122° |
| 2026-04-20 16:45 | 45.22143 | 19.85859 | 16106 ft | 367 kts | 122° |
| 2026-04-20 16:45 | 45.20846 | 19.88983 | 15645 ft | 365 kts | 122° |
| 2026-04-20 16:46 | 45.19554 | 19.92082 | 15177 ft | 365 kts | 122° |
| 2026-04-20 16:46 | 45.18262 | 19.95170 | 14733 ft | 363 kts | 122° |
| 2026-04-20 16:46 | 45.16977 | 19.98241 | 14309 ft | 361 kts | 121° |
| 2026-04-20 16:46 | 45.15715 | 20.01253 | 13925 ft | 359 kts | 122° |
| 2026-04-20 16:47 | 45.14448 | 20.04281 | 13506 ft | 356 kts | 122° |
| 2026-04-20 16:47 | 45.13191 | 20.07291 | 13083 ft | 353 kts | 122° |
| 2026-04-20 16:47 | 45.11946 | 20.10270 | 12687 ft | 350 kts | 122° |
| 2026-04-20 16:47 | 45.10710 | 20.13226 | 12284 ft | 347 kts | 122° |
| 2026-04-20 16:48 | 45.09483 | 20.16151 | 11888 ft | 344 kts | 122° |
| 2026-04-20 16:48 | 45.08266 | 20.19045 | 11505 ft | 341 kts | 122° |
| 2026-04-20 16:48 | 45.07059 | 20.21917 | 11133 ft | 338 kts | 122° |
| 2026-04-20 16:48 | 45.05867 | 20.24759 | 10765 ft | 335 kts | 122° |
| 2026-04-20 16:49 | 45.04683 | 20.27575 | 10394 ft | 332 kts | 122° |
| 2026-04-20 16:49 | 45.03504 | 20.30366 | 10030 ft | 329 kts | 122° |
| 2026-04-20 16:49 | 45.02342 | 20.33112 | 9845 ft | 319 kts | 122° |
| 2026-04-20 16:49 | 45.01221 | 20.35764 | 9689 ft | 309 kts | 122° |
| 2026-04-20 16:50 | 45.00128 | 20.38346 | 9397 ft | 304 kts | 122° |
| 2026-04-20 16:50 | 44.99043 | 20.40900 | 9074 ft | 302 kts | 122° |
| 2026-04-20 16:50 | 44.97967 | 20.43437 | 8726 ft | 300 kts | 122° |
| 2026-04-20 16:50 | 44.96900 | 20.45955 | 8382 ft | 298 kts | 121° |
| 2026-04-20 16:51 | 44.95838 | 20.48457 | 8030 ft | 296 kts | 121° |
| 2026-04-20 16:51 | 44.94797 | 20.50908 | 7695 ft | 294 kts | 121° |
| 2026-04-20 16:51 | 44.93745 | 20.53372 | 7352 ft | 292 kts | 121° |
| 2026-04-20 16:51 | 44.92700 | 20.55818 | 7031 ft | 290 kts | 121° |
| 2026-04-20 16:52 | 44.91667 | 20.58240 | 6718 ft | 287 kts | 120° |
| 2026-04-20 16:52 | 44.90609 | 20.60622 | 6392 ft | 286 kts | 126° |
| 2026-04-20 16:52 | 44.89245 | 20.62641 | 5998 ft | 286 kts | 142° |
| 2026-04-20 16:52 | 44.87559 | 20.64112 | 5604 ft | 285 kts | 157° |
| 2026-04-20 16:53 | 44.85678 | 20.64934 | 5242 ft | 282 kts | 172° |
| 2026-04-20 16:53 | 44.83751 | 20.65365 | 5000 ft | 278 kts | 172° |
| 2026-04-20 16:53 | 44.81863 | 20.65797 | 4994 ft | 268 kts | 172° |
| 2026-04-20 16:53 | 44.80071 | 20.66223 | 4986 ft | 253 kts | 172° |
| 2026-04-20 16:54 | 44.78344 | 20.66644 | 4999 ft | 250 kts | 172° |
| 2026-04-20 16:54 | 44.76631 | 20.67067 | 5006 ft | 250 kts | 172° |
| 2026-04-20 16:54 | 44.74914 | 20.67492 | 5006 ft | 250 kts | 172° |
| 2026-04-20 16:54 | 44.73222 | 20.67907 | 4999 ft | 250 kts | 172° |
| 2026-04-20 16:55 | 44.71516 | 20.68313 | 4935 ft | 246 kts | 174° |
| 2026-04-20 16:55 | 44.69859 | 20.68064 | 4639 ft | 234 kts | 207° |
| 2026-04-20 16:55 | 44.68629 | 20.66753 | 4494 ft | 216 kts | 231° |
| 2026-04-20 16:55 | 44.67683 | 20.65163 | 4158 ft | 209 kts | 235° |
| 2026-04-20 16:56 | 44.67005 | 20.63409 | 3984 ft | 204 kts | 262° |
| 2026-04-20 16:56 | 44.67170 | 20.61511 | 3987 ft | 188 kts | 299° |
| 2026-04-20 16:56 | 44.68029 | 20.60210 | 4007 ft | 181 kts | 322° |
| 2026-04-20 16:56 | 44.69029 | 20.59185 | 4006 ft | 179 kts | 321° |
| 2026-04-20 16:57 | 44.69813 | 20.57824 | 4006 ft | 180 kts | 305° |
| 2026-04-20 16:57 | 44.70488 | 20.56366 | 4004 ft | 180 kts | 304° |
| 2026-04-20 16:57 | 44.71169 | 20.54860 | 3969 ft | 181 kts | 304° |
| 2026-04-20 16:57 | 44.71838 | 20.53369 | 3797 ft | 180 kts | 304° |
| 2026-04-20 16:58 | 44.72505 | 20.51880 | 3580 ft | 179 kts | 304° |
| 2026-04-20 16:58 | 44.73168 | 20.50397 | 3342 ft | 177 kts | 303° |
| 2026-04-20 16:58 | 44.73798 | 20.48985 | 3106 ft | 169 kts | 304° |
| 2026-04-20 16:58 | 44.74413 | 20.47608 | 2882 ft | 162 kts | 304° |
| 2026-04-20 16:59 | 44.75003 | 20.46288 | 2669 ft | 157 kts | 304° |
| 2026-04-20 16:59 | 44.75578 | 20.45000 | 2487 ft | 151 kts | 304° |
| 2026-04-20 16:59 | 44.76119 | 20.43786 | 2267 ft | 144 kts | 304° |
| 2026-04-20 16:59 | 44.76647 | 20.42602 | 2074 ft | 141 kts | 304° |
| 2026-04-20 17:00 | 44.77682 | 20.40279 | 1699 ft | 139 kts | 304° |
| 2026-04-20 17:00 | 44.78196 | 20.39126 | 1497 ft | 139 kts | 304° |
| 2026-04-20 17:00 | 44.78708 | 20.37976 | 1313 ft | 138 kts | 304° |
| 2026-04-20 17:01 | 44.79219 | 20.36827 | 1116 ft | 139 kts | 304° |
| 2026-04-20 17:01 | 44.79733 | 20.35673 | 932 ft | 140 kts | 303° |
| 2026-04-20 17:01 | 44.80253 | 20.34501 | 739 ft | 143 kts | 304° |
| 2026-04-20 17:01 | 44.80775 | 20.33307 | 501 ft | 143 kts | 303° |
| 2026-04-20 17:02 | 44.81298 | 20.32135 | 317 ft | 142 kts | 303° |
| 2026-04-20 17:02 | 44.81757 | 20.31125 | 306 ft | 99 kts | 302° |
| 2026-04-20 17:02 | 44.82049 | 20.30458 | 307 ft | 71 kts | 301° |
| 2026-04-20 17:02 | 44.82279 | 20.29941 | 307 ft | 44 kts | 302° |
| 2026-04-20 17:03 | 44.82331 | 20.29753 | 311 ft | 16 kts | 248° |
| 2026-04-20 17:03 | 44.82240 | 20.29655 | 310 ft | 17 kts | 212° |
| 2026-04-20 17:03 | 44.82136 | 20.29562 | 310 ft | 19 kts | 212° |
| 2026-04-20 17:03 | 44.82048 | 20.29483 | 308 ft | 12 kts | 213° |
| 2026-04-20 17:04 | 44.82027 | 20.29433 | 308 ft | 5 kts | 298° |
| 2026-04-20 17:04 | 44.82049 | 20.29389 | 308 ft | 5 kts | 303° |
| 2026-04-20 17:04 | 44.82057 | 20.29370 | 309 ft | 0 kts | 302° |